This is the latest recevied weather packets stored in our database for station/object K7LDN-13. If no packets are shown the sender has not sent any weather packets the latest 10 day(s).
| Time | Temp. | Humidity | Pressure | Rain* | Wind** | Luminosity | Snow |
|---|---|---|---|---|---|---|---|
| 1777473154 | 8.89° C | 53% | 1023.4 hPa | 0 mm | - | 298 W/m² | - |
| 1777472852 | 8.89° C | 55% | 1023.5 hPa | 0 mm | - | 282 W/m² | - |
| 1777472547 | 8.33° C | 54% | 1023.6 hPa | 0 mm | - | 257 W/m² | - |
| 1777472245 | 8.33° C | 54% | 1023.5 hPa | 0 mm | - | 237 W/m² | - |
| 1777471941 | 8.89° C | 51% | 1023.3 hPa | 0 mm | - | 215 W/m² | - |
| 1777471638 | 8.33° C | 51% | 1023.3 hPa | 0 mm | - | 196 W/m² | - |
| 1777471334 | 7.78° C | 52% | 1023.4 hPa | 0 mm | - | 181 W/m² | - |
| 1777471030 | 7.22° C | 54% | 1023.4 hPa | 0 mm | - | 166 W/m² | - |
| 1777470727 | 6.67° C | 55% | 1023.3 hPa | 0 mm | - | 154 W/m² | - |
| 1777470423 | 6.11° C | 58% | 1023.5 hPa | 0 mm | - | 137 W/m² | - |
| 1777470120 | 5.56° C | 60% | 1023.3 hPa | 0 mm | - | 122 W/m² | - |
| 1777469816 | 5.56° C | 61% | 1023.2 hPa | 0 mm | - | 112 W/m² | - |
| 1777469512 | 5° C | 62% | 1023 hPa | 0 mm | - | 101 W/m² | - |
| 1777469207 | 4.44° C | 65% | 1023.3 hPa | 0 mm | - | 90 W/m² | - |
| 1777468901 | 4.44° C | 66% | 1023.2 hPa | 0 mm | - | 78 W/m² | - |
| 1777468598 | 3.89° C | 67% | 1023.2 hPa | 0 mm | - | 68 W/m² | - |
| 1777468295 | 3.89° C | 68% | 1023.2 hPa | 0 mm | - | 58 W/m² | - |
| 1777467991 | 3.33° C | 71% | 1023.3 hPa | 0 mm | - | 44 W/m² | - |
| 1777467687 | 2.22° C | 73% | 1023.3 hPa | 0 mm | - | 27 W/m² | - |
| 1777467382 | 2.22° C | 73% | 1023.2 hPa | 0 mm | - | 22 W/m² | - |
| 1777467078 | 1.67° C | 73% | 1023.2 hPa | 0 mm | - | 18 W/m² | - |
| 1777466770 | 1.67° C | 74% | 1023.2 hPa | 0 mm | - | 15 W/m² | - |
| 1777466468 | 1.67° C | 73% | 1023.2 hPa | 0 mm | - | 11 W/m² | - |
| 1777466164 | 1.67° C | 72% | 1023.2 hPa | 0 mm | - | 8 W/m² | - |
| 1777465860 | 1.67° C | 74% | 1023.4 hPa | 0 mm | - | 5 W/m² | - |
* Rain latest hour (hover to see other rain measurements)
** Current wind speed in m/s (hover to see current wind gust speed)